sensor_id;sensor_type;location;lat;lon;timestamp;pressure;altitude;pressure_sealevel;temperature;humidity
19508;BME280;40157;42.566;27.526;2023-09-18T00:01:21;101492.19;;;21.16;68.67
19508;BME280;40157;42.566;27.526;2023-09-18T00:03:22;101487.75;;;21.17;68.65
19508;BME280;40157;42.566;27.526;2023-09-18T00:05:24;101483.28;;;21.17;68.84
19508;BME280;40157;42.566;27.526;2023-09-18T00:07:25;101486.81;;;21.19;69.01
19508;BME280;40157;42.566;27.526;2023-09-18T00:09:26;101478.81;;;21.18;69.30
19508;BME280;40157;42.566;27.526;2023-09-18T00:11:26;101481.44;;;21.22;69.31
19508;BME280;40157;42.566;27.526;2023-09-18T00:13:27;101467.25;;;21.20;69.31
19508;BME280;40157;42.566;27.526;2023-09-18T00:15:27;101459.31;;;21.16;69.18
19508;BME280;40157;42.566;27.526;2023-09-18T00:17:28;101477.88;;;21.23;69.34
19508;BME280;40157;42.566;27.526;2023-09-18T00:19:28;101474.25;;;21.26;68.88
19508;BME280;40157;42.566;27.526;2023-09-18T00:21:29;101478.72;;;21.25;68.93
19508;BME280;40157;42.566;27.526;2023-09-18T00:23:30;101463.72;;;21.18;68.55
19508;BME280;40157;42.566;27.526;2023-09-18T00:25:31;101478.75;;;21.24;68.42
19508;BME280;40157;42.566;27.526;2023-09-18T00:27:32;101473.38;;;21.25;68.29
19508;BME280;40157;42.566;27.526;2023-09-18T00:29:32;101477.88;;;21.23;68.49
19508;BME280;40157;42.566;27.526;2023-09-18T00:31:33;101479.63;;;21.23;68.37
19508;BME280;40157;42.566;27.526;2023-09-18T00:33:33;101472.56;;;21.20;68.29
19508;BME280;40157;42.566;27.526;2023-09-18T00:35:34;101478.75;;;21.22;68.24
19508;BME280;40157;42.566;27.526;2023-09-18T00:37:34;101475.25;;;21.20;68.07
19508;BME280;40157;42.566;27.526;2023-09-18T00:39:37;101472.56;;;21.20;67.94
19508;BME280;40157;42.566;27.526;2023-09-18T00:41:37;101473.53;;;21.15;67.73
19508;BME280;40157;42.566;27.526;2023-09-18T00:43:38;101473.50;;;21.16;67.93
19508;BME280;40157;42.566;27.526;2023-09-18T00:45:41;101469.19;;;21.09;68.05
19508;BME280;40157;42.566;27.526;2023-09-18T00:47:42;101467.38;;;21.11;68.03
19508;BME280;40157;42.566;27.526;2023-09-18T00:49:46;101462.09;;;21.08;67.96
19508;BME280;40157;42.566;27.526;2023-09-18T00:51:47;101465.63;;;21.10;67.93
19508;BME280;40157;42.566;27.526;2023-09-18T00:53:48;101458.56;;;21.06;67.83
19508;BME280;40157;42.566;27.526;2023-09-18T00:55:50;101462.09;;;21.08;67.86
19508;BME280;40157;42.566;27.526;2023-09-18T00:57:55;101463.00;;;21.07;67.95
19508;BME280;40157;42.566;27.526;2023-09-18T00:59:55;101461.22;;;21.06;68.00
19508;BME280;40157;42.566;27.526;2023-09-18T01:01:56;101458.56;;;21.06;67.78
19508;BME280;40157;42.566;27.526;2023-09-18T01:03:57;101457.72;;;21.04;67.85
19508;BME280;40157;42.566;27.526;2023-09-18T01:05:58;101454.19;;;21.02;67.86
19508;BME280;40157;42.566;27.526;2023-09-18T01:07:59;101458.66;;;21.00;68.00
19508;BME280;40157;42.566;27.526;2023-09-18T01:10:00;101456.91;;;20.99;68.11
19508;BME280;40157;42.566;27.526;2023-09-18T01:14:10;101448.09;;;20.94;68.20
19508;BME280;40157;42.566;27.526;2023-09-18T01:16:25;101451.59;;;20.99;68.27
19508;BME280;40157;42.566;27.526;2023-09-18T01:18:27;101455.19;;;20.95;68.23
19508;BME280;40157;42.566;27.526;2023-09-18T01:20:27;101450.78;;;20.94;68.27
19508;BME280;40157;42.566;27.526;2023-09-18T01:22:30;101449.84;;;20.95;68.16
19508;BME280;40157;42.566;27.526;2023-09-18T01:24:32;101451.66;;;20.93;68.04
19508;BME280;40157;42.566;27.526;2023-09-18T01:26:33;101439.31;;;20.88;68.22
19508;BME280;40157;42.566;27.526;2023-09-18T01:28:33;101447.31;;;20.87;68.32
19508;BME280;40157;42.566;27.526;2023-09-18T01:30:34;101444.72;;;20.82;68.48
19508;BME280;40157;42.566;27.526;2023-09-18T01:32:37;101444.72;;;20.82;68.71
19508;BME280;40157;42.566;27.526;2023-09-18T01:34:46;101446.53;;;20.80;68.83
19508;BME280;40157;42.566;27.526;2023-09-18T01:36:47;101443.88;;;20.80;69.14
19508;BME280;40157;42.566;27.526;2023-09-18T01:38:49;101448.28;;;20.80;69.36
19508;BME280;40157;42.566;27.526;2023-09-18T01:40:52;101445.72;;;20.75;69.43
19508;BME280;40157;42.566;27.526;2023-09-18T01:42:54;101443.94;;;20.76;69.50
19508;BME280;40157;42.566;27.526;2023-09-18T01:44:55;101449.25;;;20.76;69.61
19508;BME280;40157;42.566;27.526;2023-09-18T01:47:00;101441.28;;;20.74;69.74
19508;BME280;40157;42.566;27.526;2023-09-18T01:49:03;101447.50;;;20.72;69.81
19508;BME280;40157;42.566;27.526;2023-09-18T01:51:03;101443.06;;;20.75;69.85
19508;BME280;40157;42.566;27.526;2023-09-18T01:53:04;101435.94;;;20.74;70.02
19508;BME280;40157;42.566;27.526;2023-09-18T01:55:05;101447.50;;;20.72;70.27
19508;BME280;40157;42.566;27.526;2023-09-18T01:57:06;101439.53;;;20.72;70.16
19508;BME280;40157;42.566;27.526;2023-09-18T01:59:07;101451.94;;;20.74;70.23
19508;BME280;40157;42.566;27.526;2023-09-18T02:01:08;101447.47;;;20.75;70.21
19508;BME280;40157;42.566;27.526;2023-09-18T02:03:08;101449.25;;;20.76;70.25
19508;BME280;40157;42.566;27.526;2023-09-18T02:05:08;101444.81;;;20.75;70.20
19508;BME280;40157;42.566;27.526;2023-09-18T02:07:09;101449.28;;;20.74;70.28
19508;BME280;40157;42.566;27.526;2023-09-18T02:09:09;101441.28;;;20.74;70.28
19508;BME280;40157;42.566;27.526;2023-09-18T02:11:10;101445.66;;;20.78;70.22
19508;BME280;40157;42.566;27.526;2023-09-18T02:13:10;101444.75;;;20.79;70.25
19508;BME280;40157;42.566;27.526;2023-09-18T02:15:11;101435.91;;;20.77;70.08
19508;BME280;40157;42.566;27.526;2023-09-18T02:17:11;101440.25;;;20.83;70.13
19508;BME280;40157;42.566;27.526;2023-09-18T02:19:13;101448.28;;;20.81;70.22
19508;BME280;40157;42.566;27.526;2023-09-18T02:21:20;101446.44;;;20.85;70.19
19508;BME280;40157;42.566;27.526;2023-09-18T02:23:21;101448.22;;;20.84;69.93
19508;BME280;40157;42.566;27.526;2023-09-18T02:25:22;101452.66;;;20.85;70.25
19508;BME280;40157;42.566;27.526;2023-09-18T02:27:22;101448.22;;;20.84;69.98
19508;BME280;40157;42.566;27.526;2023-09-18T02:29:22;101430.63;;;20.74;70.25
19508;BME280;40157;42.566;27.526;2023-09-18T02:31:23;101450.00;;;20.85;70.20
19508;BME280;40157;42.566;27.526;2023-09-18T02:33:23;101454.47;;;20.83;70.28
19508;BME280;40157;42.566;27.526;2023-09-18T02:35:24;101450.91;;;20.83;70.32
19508;BME280;40157;42.566;27.526;2023-09-18T02:37:24;101457.09;;;20.85;70.32
19508;BME280;40157;42.566;27.526;2023-09-18T02:39:25;101466.00;;;20.85;70.28
19508;BME280;40157;42.566;27.526;2023-09-18T02:41:25;101464.22;;;20.84;70.15
19508;BME280;40157;42.566;27.526;2023-09-18T02:43:26;101462.47;;;20.83;70.37
19508;BME280;40157;42.566;27.526;2023-09-18T02:45:26;101456.34;;;20.77;70.23
19508;BME280;40157;42.566;27.526;2023-09-18T02:47:27;101462.47;;;20.83;70.03
19508;BME280;40157;42.566;27.526;2023-09-18T02:49:27;101462.47;;;20.83;70.25
19508;BME280;40157;42.566;27.526;2023-09-18T02:51:27;101467.81;;;20.83;70.06
19508;BME280;40157;42.566;27.526;2023-09-18T02:53:28;101464.25;;;20.83;70.28
19508;BME280;40157;42.566;27.526;2023-09-18T02:55:29;101467.84;;;20.80;70.47
19508;BME280;40157;42.566;27.526;2023-09-18T02:57:29;101465.19;;;20.80;70.36
19508;BME280;40157;42.566;27.526;2023-09-18T02:59:30;101472.25;;;20.81;70.26
19508;BME280;40157;42.566;27.526;2023-09-18T03:01:31;101469.59;;;20.81;70.27
19508;BME280;40157;42.566;27.526;2023-09-18T03:03:33;101463.41;;;20.79;70.18
19508;BME280;40157;42.566;27.526;2023-09-18T03:05:33;101469.59;;;20.81;70.03
19508;BME280;40157;42.566;27.526;2023-09-18T03:07:34;101469.63;;;20.78;70.14
19508;BME280;40157;42.566;27.526;2023-09-18T03:09:34;101476.78;;;20.76;69.92
19508;BME280;40157;42.566;27.526;2023-09-18T03:11:36;101476.78;;;20.76;70.10
19508;BME280;40157;42.566;27.526;2023-09-18T03:13:36;101482.13;;;20.75;70.05
19508;BME280;40157;42.566;27.526;2023-09-18T03:15:37;101467.94;;;20.74;70.23
19508;BME280;40157;42.566;27.526;2023-09-18T03:17:38;101468.00;;;20.68;70.10
19508;BME280;40157;42.566;27.526;2023-09-18T03:19:41;101473.28;;;20.71;70.46
19508;BME280;40157;42.566;27.526;2023-09-18T03:21:41;101470.63;;;20.71;70.68
19508;BME280;40157;42.566;27.526;2023-09-18T03:23:42;101472.44;;;20.70;70.60
19508;BME280;40157;42.566;27.526;2023-09-18T03:25:42;101475.13;;;20.69;70.52
19508;BME280;40157;42.566;27.526;2023-09-18T03:27:42;101462.72;;;20.65;70.76
19508;BME280;40157;42.566;27.526;2023-09-18T03:29:43;101470.75;;;20.62;70.91
19508;BME280;40157;42.566;27.526;2023-09-18T03:31:43;101471.63;;;20.64;70.93
19508;BME280;40157;42.566;27.526;2023-09-18T03:33:44;101469.84;;;20.63;71.09
19508;BME280;40157;42.566;27.526;2023-09-18T03:35:51;101467.16;;;20.66;71.08
19508;BME280;40157;42.566;27.526;2023-09-18T03:37:54;101473.38;;;20.65;71.13
19508;BME280;40157;42.566;27.526;2023-09-18T03:39:54;101460.16;;;20.57;71.11
19508;BME280;40157;42.566;27.526;2023-09-18T03:41:55;101468.03;;;20.65;71.26
19508;BME280;40157;42.566;27.526;2023-09-18T03:43:55;101475.13;;;20.69;71.07
19508;BME280;40157;42.566;27.526;2023-09-18T03:46:05;101478.63;;;20.71;71.08
19508;BME280;40157;42.566;27.526;2023-09-18T03:48:06;101471.59;;;20.67;71.08
19508;BME280;40157;42.566;27.526;2023-09-18T03:50:10;101475.13;;;20.69;71.06
19508;BME280;40157;42.566;27.526;2023-09-18T03:52:11;101473.34;;;20.68;70.98
19508;BME280;40157;42.566;27.526;2023-09-18T03:54:11;101475.13;;;20.69;70.86
19508;BME280;40157;42.566;27.526;2023-09-18T03:56:12;101469.81;;;20.67;70.89
19508;BME280;40157;42.566;27.526;2023-09-18T03:58:12;101473.28;;;20.71;70.81
19508;BME280;40157;42.566;27.526;2023-09-18T04:00:13;101465.34;;;20.66;70.74
19508;BME280;40157;42.566;27.526;2023-09-18T04:02:13;101475.06;;;20.72;70.70
19508;BME280;40157;42.566;27.526;2023-09-18T04:04:14;101484.78;;;20.75;70.69
19508;BME280;40157;42.566;27.526;2023-09-18T04:06:14;101482.16;;;20.73;70.86
19508;BME280;40157;42.566;27.526;2023-09-18T04:08:15;101477.72;;;20.74;70.76
19508;BME280;40157;42.566;27.526;2023-09-18T04:10:15;101469.75;;;20.72;70.69
19508;BME280;40157;42.566;27.526;2023-09-18T04:12:19;101476.81;;;20.73;70.70
19508;BME280;40157;42.566;27.526;2023-09-18T04:14:20;101477.69;;;20.77;70.68
19508;BME280;40157;42.566;27.526;2023-09-18T04:16:20;101484.72;;;20.79;70.76
19508;BME280;40157;42.566;27.526;2023-09-18T04:18:21;101477.59;;;20.80;70.79
19508;BME280;40157;42.566;27.526;2023-09-18T04:20:21;101481.16;;;20.82;70.71
19508;BME280;40157;42.566;27.526;2023-09-18T04:22:23;101482.91;;;20.81;70.99
19508;BME280;40157;42.566;27.526;2023-09-18T04:24:23;101481.19;;;20.80;71.19
19508;BME280;40157;42.566;27.526;2023-09-18T04:26:24;101483.81;;;20.83;71.00
19508;BME280;40157;42.566;27.526;2023-09-18T04:28:29;101477.56;;;20.83;71.08
19508;BME280;40157;42.566;27.526;2023-09-18T04:30:30;101475.75;;;20.85;71.27
19508;BME280;40157;42.566;27.526;2023-09-18T04:32:31;101489.06;;;20.86;71.35
19508;BME280;40157;42.566;27.526;2023-09-18T04:34:31;101477.50;;;20.87;71.38
19508;BME280;40157;42.566;27.526;2023-09-18T04:36:32;101473.94;;;20.90;71.73
19508;BME280;40157;42.566;27.526;2023-09-18T04:38:32;101476.53;;;20.92;71.67
19508;BME280;40157;42.566;27.526;2023-09-18T04:40:33;101480.09;;;20.94;71.74
19508;BME280;40157;42.566;27.526;2023-09-18T04:42:34;101494.25;;;20.99;71.80
19508;BME280;40157;42.566;27.526;2023-09-18T04:44:34;101486.19;;;21.02;71.75
19508;BME280;40157;42.566;27.526;2023-09-18T04:46:34;101487.06;;;21.04;71.78
19508;BME280;40157;42.566;27.526;2023-09-18T04:48:35;101495.91;;;21.04;71.72
19508;BME280;40157;42.566;27.526;2023-09-18T04:50:36;101494.16;;;21.05;71.84
19508;BME280;40157;42.566;27.526;2023-09-18T04:52:36;101491.41;;;21.10;71.89
19508;BME280;40157;42.566;27.526;2023-09-18T04:54:37;101488.72;;;21.10;72.25
19508;BME280;40157;42.566;27.526;2023-09-18T04:56:37;101493.94;;;21.17;72.34
19508;BME280;40157;42.566;27.526;2023-09-18T04:58:38;101490.34;;;21.20;72.16
19508;BME280;40157;42.566;27.526;2023-09-18T05:00:39;101493.88;;;21.23;72.25
19508;BME280;40157;42.566;27.526;2023-09-18T05:02:40;101496.53;;;21.23;72.41
19508;BME280;40157;42.566;27.526;2023-09-18T05:04:40;101490.28;;;21.24;72.65
19508;BME280;40157;42.566;27.526;2023-09-18T05:06:41;101488.38;;;21.33;72.73
19508;BME280;40157;42.566;27.526;2023-09-18T05:08:43;101491.00;;;21.36;73.00
19508;BME280;40157;42.566;27.526;2023-09-18T05:10:44;101482.91;;;21.42;73.24
19508;BME280;40157;42.566;27.526;2023-09-18T05:12:44;101481.91;;;21.46;73.22
19508;BME280;40157;42.566;27.526;2023-09-18T05:14:45;101486.34;;;21.50;73.00
19508;BME280;40157;42.566;27.526;2023-09-18T05:16:46;101485.38;;;21.54;72.25
19508;BME280;40157;42.566;27.526;2023-09-18T05:18:46;101488.84;;;21.59;71.91
19508;BME280;40157;42.566;27.526;2023-09-18T05:20:47;101487.91;;;21.64;71.57
19508;BME280;40157;42.566;27.526;2023-09-18T05:22:47;101484.31;;;21.65;71.66
19508;BME280;40157;42.566;27.526;2023-09-18T05:24:48;101486.06;;;21.67;71.56
19508;BME280;40157;42.566;27.526;2023-09-18T05:26:48;101486.03;;;21.69;71.73
19508;BME280;40157;42.566;27.526;2023-09-18T05:28:49;101496.47;;;21.81;71.30
19508;BME280;40157;42.566;27.526;2023-09-18T05:30:51;101492.84;;;21.85;71.09
19508;BME280;40157;42.566;27.526;2023-09-18T05:32:51;101489.09;;;21.95;70.96
19508;BME280;40157;42.566;27.526;2023-09-18T05:34:51;101489.84;;;22.04;70.43
19508;BME280;40157;42.566;27.526;2023-09-18T05:36:52;101494.06;;;22.14;70.17
19508;BME280;40157;42.566;27.526;2023-09-18T05:38:53;101493.94;;;22.22;70.42
19508;BME280;40157;42.566;27.526;2023-09-18T05:40:53;101495.56;;;22.30;70.20
19508;BME280;40157;42.566;27.526;2023-09-18T05:42:54;101499.88;;;22.38;69.91
19508;BME280;40157;42.566;27.526;2023-09-18T05:44:55;101498.81;;;22.45;69.41
19508;BME280;40157;42.566;27.526;2023-09-18T05:46:56;101502.22;;;22.53;68.81
19508;BME280;40157;42.566;27.526;2023-09-18T05:48:56;101497.63;;;22.58;68.80
19508;BME280;40157;42.566;27.526;2023-09-18T05:50:58;101496.69;;;22.62;68.63
19508;BME280;40157;42.566;27.526;2023-09-18T05:52:59;101494.88;;;22.63;67.09
19508;BME280;40157;42.566;27.526;2023-09-18T05:55:02;101503.69;;;22.66;67.46
19508;BME280;40157;42.566;27.526;2023-09-18T05:57:03;101495.69;;;22.66;67.54
19508;BME280;40157;42.566;27.526;2023-09-18T05:59:03;101508.09;;;22.70;67.33
19508;BME280;40157;42.566;27.526;2023-09-18T06:01:04;101503.50;;;22.76;67.39
19508;BME280;40157;42.566;27.526;2023-09-18T06:03:05;101509.66;;;22.79;66.98
19508;BME280;40157;42.566;27.526;2023-09-18T06:05:06;101501.63;;;22.81;66.87
19508;BME280;40157;42.566;27.526;2023-09-18T06:07:07;101509.53;;;22.85;67.19
19508;BME280;40157;42.566;27.526;2023-09-18T06:09:07;101512.13;;;22.90;66.59
19508;BME280;40157;42.566;27.526;2023-09-18T06:11:08;101512.13;;;22.90;66.57
19508;BME280;40157;42.566;27.526;2023-09-18T06:13:08;101515.63;;;22.92;66.67
19508;BME280;40157;42.566;27.526;2023-09-18T06:15:09;101514.63;;;22.96;67.05
19508;BME280;40157;42.566;27.526;2023-09-18T06:17:10;101504.75;;;23.00;66.48
19508;BME280;40157;42.566;27.526;2023-09-18T06:19:10;101502.88;;;23.05;67.37
19508;BME280;40157;42.566;27.526;2023-09-18T06:21:11;101510.94;;;23.03;66.26
19508;BME280;40157;42.566;27.526;2023-09-18T06:23:11;101510.84;;;23.06;66.31
19508;BME280;40157;42.566;27.526;2023-09-18T06:25:12;101511.56;;;23.15;66.39
19508;BME280;40157;42.566;27.526;2023-09-18T06:27:14;101511.50;;;23.18;65.81
19508;BME280;40157;42.566;27.526;2023-09-18T06:29:15;101517.59;;;23.23;66.13
19508;BME280;40157;42.566;27.526;2023-09-18T06:31:15;101505.97;;;23.25;65.81
19508;BME280;40157;42.566;27.526;2023-09-18T06:33:16;101507.78;;;23.25;65.58
19508;BME280;40157;42.566;27.526;2023-09-18T06:35:17;101500.44;;;23.33;65.70
19508;BME280;40157;42.566;27.526;2023-09-18T06:37:17;101502.94;;;23.39;65.69
19508;BME280;40157;42.566;27.526;2023-09-18T06:39:18;101509.03;;;23.46;64.92
19508;BME280;40157;42.566;27.526;2023-09-18T06:41:20;101499.97;;;23.52;64.80
19508;BME280;40157;42.566;27.526;2023-09-18T06:43:21;101514.13;;;23.57;64.71
19508;BME280;40157;42.566;27.526;2023-09-18T06:45:23;101503.41;;;23.57;64.40
19508;BME280;40157;42.566;27.526;2023-09-18T06:47:23;101499.72;;;23.61;63.73
19508;BME280;40157;42.566;27.526;2023-09-18T06:49:26;101508.59;;;23.63;63.49
19508;BME280;40157;42.566;27.526;2023-09-18T06:51:27;101495.25;;;23.61;64.16
19508;BME280;40157;42.566;27.526;2023-09-18T06:53:28;101505.72;;;23.71;63.68
19508;BME280;40157;42.566;27.526;2023-09-18T06:55:29;101504.78;;;23.73;63.28
19508;BME280;40157;42.566;27.526;2023-09-18T06:57:29;101510.03;;;23.76;63.26
19508;BME280;40157;42.566;27.526;2023-09-18T06:59:29;101509.94;;;23.79;63.75
19508;BME280;40157;42.566;27.526;2023-09-18T07:01:30;101510.88;;;23.78;62.87
19508;BME280;40157;42.566;27.526;2023-09-18T07:03:32;101510.03;;;23.76;63.05
19508;BME280;40157;42.566;27.526;2023-09-18T07:05:34;101508.22;;;23.78;63.99
19508;BME280;40157;42.566;27.526;2023-09-18T07:07:35;101505.53;;;23.78;62.98
19508;BME280;40157;42.566;27.526;2023-09-18T07:09:35;101510.81;;;23.81;63.23
19508;BME280;40157;42.566;27.526;2023-09-18T07:11:36;101508.13;;;23.81;63.34
19508;BME280;40157;42.566;27.526;2023-09-18T07:13:38;101515.50;;;23.73;63.02
19508;BME280;40157;42.566;27.526;2023-09-18T07:15:38;101507.53;;;23.70;62.83
19508;BME280;40157;42.566;27.526;2023-09-18T07:17:38;101520.16;;;23.65;62.94
19508;BME280;40157;42.566;27.526;2023-09-18T07:19:39;101509.56;;;23.60;63.94
19508;BME280;40157;42.566;27.526;2023-09-18T07:21:39;101521.91;;;23.66;63.69
19508;BME280;40157;42.566;27.526;2023-09-18T07:23:41;101513.94;;;23.63;63.62
19508;BME280;40157;42.566;27.526;2023-09-18T07:25:42;101519.22;;;23.66;63.57
19508;BME280;40157;42.566;27.526;2023-09-18T07:27:43;101519.22;;;23.66;63.81
19508;BME280;40157;42.566;27.526;2023-09-18T07:29:44;101516.31;;;23.75;65.15
19508;BME280;40157;42.566;27.526;2023-09-18T07:31:45;101510.81;;;23.81;64.74
19508;BME280;40157;42.566;27.526;2023-09-18T07:33:47;101524.97;;;23.88;65.01
19508;BME280;40157;42.566;27.526;2023-09-18T07:35:49;101507.00;;;23.92;64.30
19508;BME280;40157;42.566;27.526;2023-09-18T07:37:52;101511.25;;;23.99;64.08
19508;BME280;40157;42.566;27.526;2023-09-18T07:39:52;101518.28;;;24.03;63.70
19508;BME280;40157;42.566;27.526;2023-09-18T07:41:52;101521.75;;;24.08;64.67
19508;BME280;40157;42.566;27.526;2023-09-18T07:43:53;101508.50;;;24.02;63.97
19508;BME280;40157;42.566;27.526;2023-09-18T07:45:53;101519.72;;;24.16;64.49
19508;BME280;40157;42.566;27.526;2023-09-18T07:47:55;101517.78;;;24.22;64.75
19508;BME280;40157;42.566;27.526;2023-09-18T07:49:57;101514.91;;;24.28;64.65
19508;BME280;40157;42.566;27.526;2023-09-18T07:51:57;101514.75;;;24.34;63.85
19508;BME280;40157;42.566;27.526;2023-09-18T07:53:57;101514.66;;;24.37;64.05
19508;BME280;40157;42.566;27.526;2023-09-18T07:55:58;101517.34;;;24.37;63.16
19508;BME280;40157;42.566;27.526;2023-09-18T07:57:59;101508.53;;;24.33;62.52
19508;BME280;40157;42.566;27.526;2023-09-18T07:59:59;101519.88;;;24.43;62.59
19508;BME280;40157;42.566;27.526;2023-09-18T08:02:06;101518.75;;;24.50;62.50
19508;BME280;40157;42.566;27.526;2023-09-18T08:04:09;101516.84;;;24.55;62.74
19508;BME280;40157;42.566;27.526;2023-09-18T08:06:09;101513.03;;;24.63;61.94
19508;BME280;40157;42.566;27.526;2023-09-18T08:08:11;101519.09;;;24.69;61.89
19508;BME280;40157;42.566;27.526;2023-09-18T08:10:13;101522.47;;;24.76;62.61
19508;BME280;40157;42.566;27.526;2023-09-18T08:12:13;101516.13;;;24.80;61.76
19508;BME280;40157;42.566;27.526;2023-09-18T08:14:14;101513.44;;;24.80;61.47
19508;BME280;40157;42.566;27.526;2023-09-18T08:16:14;101508.31;;;24.71;61.09
19508;BME280;40157;42.566;27.526;2023-09-18T08:18:15;101517.38;;;24.68;61.23
19508;BME280;40157;42.566;27.526;2023-09-18T08:20:16;101514.13;;;24.57;61.50
19508;BME280;40157;42.566;27.526;2023-09-18T08:22:16;101519.56;;;24.52;61.50
19508;BME280;40157;42.566;27.526;2023-09-18T08:24:19;101512.66;;;24.45;62.18
19508;BME280;40157;42.566;27.526;2023-09-18T08:26:19;101510.22;;;24.36;62.35
19508;BME280;40157;42.566;27.526;2023-09-18T08:28:20;101506.00;;;24.27;63.20
19508;BME280;40157;42.566;27.526;2023-09-18T08:30:21;101512.25;;;24.28;62.93
19508;BME280;40157;42.566;27.526;2023-09-18T08:32:21;101516.03;;;24.20;63.38
19508;BME280;40157;42.566;27.526;2023-09-18T08:34:21;101513.34;;;24.20;63.95
19508;BME280;40157;42.566;27.526;2023-09-18T08:36:22;101508.81;;;24.23;64.56
19508;BME280;40157;42.566;27.526;2023-09-18T08:38:22;101516.03;;;24.20;64.60
19508;BME280;40157;42.566;27.526;2023-09-18T08:40:23;101510.81;;;24.14;64.51
19508;BME280;40157;42.566;27.526;2023-09-18T08:42:24;101521.53;;;24.14;64.94
19508;BME280;40157;42.566;27.526;2023-09-18T08:44:26;101518.81;;;24.16;65.40
19508;BME280;40157;42.566;27.526;2023-09-18T08:46:27;101517.97;;;24.15;64.83
19508;BME280;40157;42.566;27.526;2023-09-18T08:48:29;101525.91;;;24.18;64.69
19508;BME280;40157;42.566;27.526;2023-09-18T08:50:36;101519.72;;;24.16;64.46
19508;BME280;40157;42.566;27.526;2023-09-18T08:52:38;101517.75;;;24.23;64.60
19508;BME280;40157;42.566;27.526;2023-09-18T08:54:40;101523.03;;;24.25;64.72
19508;BME280;40157;42.566;27.526;2023-09-18T08:56:40;101518.47;;;24.30;64.05
19508;BME280;40157;42.566;27.526;2023-09-18T08:58:41;101512.00;;;24.37;64.43
19508;BME280;40157;42.566;27.526;2023-09-18T09:00:42;101514.44;;;24.45;63.58
19508;BME280;40157;42.566;27.526;2023-09-18T09:02:44;101520.34;;;24.58;63.51
19508;BME280;40157;42.566;27.526;2023-09-18T09:04:44;101515.63;;;24.66;62.83
19508;BME280;40157;42.566;27.526;2023-09-18T09:06:45;101523.50;;;24.72;62.42
19508;BME280;40157;42.566;27.526;2023-09-18T09:08:45;101520.75;;;24.75;61.89
19508;BME280;40157;42.566;27.526;2023-09-18T09:10:46;101520.56;;;24.80;61.08
19508;BME280;40157;42.566;27.526;2023-09-18T09:12:57;101526.59;;;24.88;60.53
19508;BME280;40157;42.566;27.526;2023-09-18T09:15:02;101524.59;;;24.94;59.40
19508;BME280;40157;42.566;27.526;2023-09-18T09:17:03;101513.75;;;24.98;58.44
19508;BME280;40157;42.566;27.526;2023-09-18T09:19:04;101524.09;;;25.11;59.79
19508;BME280;40157;42.566;27.526;2023-09-18T09:21:05;101522.94;;;25.19;60.32
19508;BME280;40157;42.566;27.526;2023-09-18T09:23:07;101515.66;;;25.22;59.28
19508;BME280;40157;42.566;27.526;2023-09-18T09:27:20;101515.38;;;25.33;59.34
19508;BME280;40157;42.566;27.526;2023-09-18T09:29:21;101523.16;;;25.41;59.21
19508;BME280;40157;42.566;27.526;2023-09-18T09:31:29;101521.97;;;25.49;58.77
19508;BME280;40157;42.566;27.526;2023-09-18T09:33:31;101531.69;;;25.54;58.71
19508;BME280;40157;42.566;27.526;2023-09-18T09:35:35;101519.94;;;25.56;57.52
19508;BME280;40157;42.566;27.526;2023-09-18T09:37:35;101527.13;;;25.56;57.96
19508;BME280;40157;42.566;27.526;2023-09-18T09:39:51;101528.63;;;25.64;57.94
19508;BME280;40157;42.566;27.526;2023-09-18T09:41:52;101516.75;;;25.72;57.04
19508;BME280;40157;42.566;27.526;2023-09-18T09:43:53;101522.47;;;25.88;56.64
19508;BME280;40157;42.566;27.526;2023-09-18T09:45:59;101526.44;;;26.02;57.03
19508;BME280;40157;42.566;27.526;2023-09-18T09:48:00;101535.00;;;26.14;55.79
19508;BME280;40157;42.566;27.526;2023-09-18T09:50:12;101534.53;;;26.26;54.55
19508;BME280;40157;42.566;27.526;2023-09-18T09:52:19;101530.47;;;26.39;54.83
19508;BME280;40157;42.566;27.526;2023-09-18T09:54:33;101527.34;;;26.52;53.61
19508;BME280;40157;42.566;27.526;2023-09-18T09:56:46;101526.97;;;26.61;54.29
19508;BME280;40157;42.566;27.526;2023-09-18T09:59:04;101535.53;;;26.72;54.21
19508;BME280;40157;42.566;27.526;2023-09-18T10:01:09;101532.63;;;26.79;53.02
19508;BME280;40157;42.566;27.526;2023-09-18T10:03:15;101532.19;;;26.89;52.85
19508;BME280;40157;42.566;27.526;2023-09-18T10:05:17;101534.34;;;27.03;53.55
19508;BME280;40157;42.566;27.526;2023-09-18T10:07:19;101538.44;;;27.13;52.73
19508;BME280;40157;42.566;27.526;2023-09-18T10:09:21;101525.53;;;27.22;53.45
19508;BME280;40157;42.566;27.526;2023-09-18T10:11:24;101519.91;;;27.28;52.78
19508;BME280;40157;42.566;27.526;2023-09-18T10:13:55;101526.00;;;27.33;52.17
19508;BME280;40157;42.566;27.526;2023-09-18T10:15:54;101517.66;;;27.39;52.31
19508;BME280;40157;42.566;27.526;2023-09-18T10:17:58;101522.66;;;27.48;52.71
19508;BME280;40157;42.566;27.526;2023-09-18T10:20:09;101525.84;;;27.58;52.08
19508;BME280;40157;42.566;27.526;2023-09-18T10:22:31;101528.13;;;27.67;51.44
19508;BME280;40157;42.566;27.526;2023-09-18T10:24:38;101523.50;;;27.71;51.10
19508;BME280;40157;42.566;27.526;2023-09-18T10:26:50;101517.97;;;27.74;51.36
19508;BME280;40157;42.566;27.526;2023-09-18T10:28:53;101527.00;;;27.73;51.20
19508;BME280;40157;42.566;27.526;2023-09-18T10:30:57;101521.63;;;27.73;51.03
19508;BME280;40157;42.566;27.526;2023-09-18T10:32:58;101521.69;;;27.72;50.73